Terminal Aerodrome Forecast
Issued by NWS Dodge City, KS

Home | Current Version | Previous Version | Graphics & Text | Print | Product List | Glossary Off
Versions: 1 2 3 4 5 6 7 8 9 10 11 12 13 14 15 16 17 18 19 20 21 22 23 24 25 26 27 28

000
FTUS43 KDDC 222300
TAFDDC
TAF
KDDC 222320Z 2300/2324 VRB12KT P6SM VCTS BKN100CB
     FM230130 12010KT P6SM SCT100
     FM230500 18013KT P6SM SCT100
     FM231900 20019G26KT P6SM SKC=

USA.gov is the U.S. government's official web portal to all federal, state and local government web resources and services.